Terminal Aerodrome Forecast
Issued by NWS

Home | Current Version | Previous Version | Text Only | Print | Product List | Glossary On
Versions: 1 2 3 4 5 6 7 8 9 10 11 12 13 14 15 16 17 18 19 20 21 22 23 24 25 26
188
FTUS42 KTAE 220221 AAA
TAFECP
TAF AMD
KECP 220221Z 2202/2224 VRB05KT P6SM BKN006 OVC020
     FM220400 20012KT 6SM -RA OVC015
     FM221000 21012KT 3SM TSRA OVC015CB
     FM221700 22015G22KT 6SM -RA OVC015=

USA.gov is the U.S. government's official web portal to all federal, state and local government web resources and services.